Jasper Arrow — C6UH9 — position and weather

sailwx.info

Track history (hours):
 
Tides and Currents Weather Stations Pressure Air Temp Water Temp Dewpoint Dewpoint Depression Visibility Wind Speed Wind Dir Waves Ship Positions

Jasper Arrow

Last reported at 2018-Jul-14 08:12 UTC. Time now 2018-Jul-18 08:54 UTC.
Position N 01°26' E 103°13'.

Length 200 m; draft 9 m.

Type: Cargo ship. MMSI: 311919000.

Date/timePositionNaut miles runAvg speedWind from/ knotsBaromVisibWave heightAir tempDewpointWater temp
2018-Jul-14 08:12N 01°26' E 103°13'615.5
2018-Jul-14 07:49N 01°21' E 103°17'615.0
2018-Jul-14 07:25N 01°17' E 103°21'614.9
2018-Jul-14 06:59N 01°14' E 103°26'714.1
2018-Jul-14 06:30N 01°12' E 103°33'612.4
2018-Jul-14 05:59N 01°12' E 103°40'612.7
2018-Jul-14 05:30N 01°16' E 103°44'1 0.9
2018-Jul-14 04:06N 01°17' E 103°45'0 0.0
2018-Jul-14 03:54N 01°17' E 103°45'0 0.0
2018-Jul-14 03:25N 01°17' E 103°45'0 0.0
2018-Jul-14 02:52N 01°17' E 103°45'0 0.0
2018-Jul-14 02:30N 01°17' E 103°45'0 0.0
2018-Jul-14 01:52N 01°17' E 103°45'0 0.0
2018-Jul-14 01:24N 01°17' E 103°45'0 0.0
2018-Jul-14 01:00N 01°17' E 103°45'0 0.0
2018-Jul-14 00:27N 01°17' E 103°45'0 0.0
2018-Jul-13 23:57N 01°17' E 103°45'0 0.0
2018-Jul-13 23:24N 01°17' E 103°45'0 0.0
2018-Jul-13 23:00N 01°17' E 103°45'0 0.0
2018-Jul-13 22:30N 01°17' E 103°45'0 0.0
2018-Jul-13 21:57N 01°17' E 103°45'0 0.0
2018-Jul-13 21:30N 01°17' E 103°45'0 0.0
2018-Jul-13 20:57N 01°17' E 103°45'0 0.0
2018-Jul-13 20:21N 01°17' E 103°45'0 0.0
2018-Jul-13 19:42N 01°17' E 103°45'0 0.0
2018-Jul-13 19:30N 01°17' E 103°45'0 0.0
2018-Jul-13 18:54N 01°17' E 103°45'0 0.0
2018-Jul-13 18:24N 01°17' E 103°45'0 0.0
2018-Jul-13 17:57N 01°17' E 103°45'0 0.0
2018-Jul-13 17:30N 01°17' E 103°45'0 0.0
2018-Jul-13 16:59N 01°17' E 103°45'0 0.0
2018-Jul-13 16:30N 01°17' E 103°45'0 0.0
2018-Jul-13 15:59N 01°17' E 103°45'0 0.0
2018-Jul-13 15:30N 01°17' E 103°45'0 0.0
2018-Jul-13 15:00N 01°17' E 103°45'7 7.3
2018-Jul-13 13:59N 01°13' E 103°51'3 7.3
2018-Jul-13 13:30N 01°14' E 103°54'2 3.8
2018-Jul-13 13:00N 01°14' E 103°56'3 7.0
2018-Jul-13 12:30N 01°15' E 103°60'4 8.2
2018-Jul-13 11:59N 01°16' E 104°04'4 8.0
2018-Jul-13 11:30N 01°17' E 104°08'5 8.6
2018-Jul-13 10:54N 01°17' E 104°12'511.5
2018-Jul-13 10:27N 01°18' E 104°18'511.2
2018-Jul-13 09:59N 01°21' E 104°22'  
Track history (hours):
 
Tides and Currents Weather Stations Pressure Air Temp Water Temp Dewpoint Dewpoint Depression Visibility Wind Speed Wind Dir Waves Ship Positions

Jasper Arrow

Last reported at 2018-Jul-14 08:12 UTC. Time now 2018-Jul-18 08:54 UTC.
Position N 01°26' E 103°13'.

Length 200 m; draft 9 m.

Type: Cargo ship. MMSI: 311919000.

Date/timePositionNaut miles runAvg speedWind from/ knotsBaromVisibWave heightAir tempDewpointWater temp
2018-Jul-14 08:12N 01°26' E 103°13'615.5
2018-Jul-14 07:49N 01°21' E 103°17'615.0
2018-Jul-14 07:25N 01°17' E 103°21'614.9
2018-Jul-14 06:59N 01°14' E 103°26'714.1
2018-Jul-14 06:30N 01°12' E 103°33'612.4
2018-Jul-14 05:59N 01°12' E 103°40'612.7
2018-Jul-14 05:30N 01°16' E 103°44'1 0.9
2018-Jul-14 04:06N 01°17' E 103°45'0 0.0
2018-Jul-14 03:54N 01°17' E 103°45'0 0.0
2018-Jul-14 03:25N 01°17' E 103°45'0 0.0
2018-Jul-14 02:52N 01°17' E 103°45'0 0.0
2018-Jul-14 02:30N 01°17' E 103°45'0 0.0
2018-Jul-14 01:52N 01°17' E 103°45'0 0.0
2018-Jul-14 01:24N 01°17' E 103°45'0 0.0
2018-Jul-14 01:00N 01°17' E 103°45'0 0.0
2018-Jul-14 00:27N 01°17' E 103°45'0 0.0
2018-Jul-13 23:57N 01°17' E 103°45'0 0.0
2018-Jul-13 23:24N 01°17' E 103°45'0 0.0
2018-Jul-13 23:00N 01°17' E 103°45'0 0.0
2018-Jul-13 22:30N 01°17' E 103°45'0 0.0
2018-Jul-13 21:57N 01°17' E 103°45'0 0.0
2018-Jul-13 21:30N 01°17' E 103°45'0 0.0
2018-Jul-13 20:57N 01°17' E 103°45'0 0.0
2018-Jul-13 20:21N 01°17' E 103°45'0 0.0
2018-Jul-13 19:42N 01°17' E 103°45'0 0.0
2018-Jul-13 19:30N 01°17' E 103°45'0 0.0
2018-Jul-13 18:54N 01°17' E 103°45'0 0.0
2018-Jul-13 18:24N 01°17' E 103°45'0 0.0
2018-Jul-13 17:57N 01°17' E 103°45'0 0.0
2018-Jul-13 17:30N 01°17' E 103°45'0 0.0
2018-Jul-13 16:59N 01°17' E 103°45'0 0.0
2018-Jul-13 16:30N 01°17' E 103°45'0 0.0
2018-Jul-13 15:59N 01°17' E 103°45'0 0.0
2018-Jul-13 15:30N 01°17' E 103°45'0 0.0
2018-Jul-13 15:00N 01°17' E 103°45'7 7.3
2018-Jul-13 13:59N 01°13' E 103°51'3 7.3
2018-Jul-13 13:30N 01°14' E 103°54'2 3.8
2018-Jul-13 13:00N 01°14' E 103°56'3 7.0
2018-Jul-13 12:30N 01°15' E 103°60'4 8.2
2018-Jul-13 11:59N 01°16' E 104°04'4 8.0
2018-Jul-13 11:30N 01°17' E 104°08'5 8.6
2018-Jul-13 10:54N 01°17' E 104°12'511.5
2018-Jul-13 10:27N 01°18' E 104°18'511.2
2018-Jul-13 09:59N 01°21' E 104°22'  

Dump ship's entire track history